sensor_id;sensor_type;location;lat;lon;timestamp;temperature;humidity
18126;DHT22;53956;52.442;13.284;2023-11-18T00:00:54;8.90;99.90
18126;DHT22;53956;52.442;13.284;2023-11-18T00:03:20;9.00;99.90
18126;DHT22;53956;52.442;13.284;2023-11-18T00:05:48;9.00;99.90
18126;DHT22;53956;52.442;13.284;2023-11-18T00:08:15;8.90;99.90
18126;DHT22;53956;52.442;13.284;2023-11-18T00:10:42;9.10;99.90
18126;DHT22;53956;52.442;13.284;2023-11-18T00:13:08;8.80;99.90
18126;DHT22;53956;52.442;13.284;2023-11-18T00:15:35;8.90;99.90
18126;DHT22;53956;52.442;13.284;2023-11-18T00:18:01;8.80;99.90
18126;DHT22;53956;52.442;13.284;2023-11-18T00:20:28;8.80;99.90
18126;DHT22;53956;52.442;13.284;2023-11-18T00:22:57;9.00;99.90
18126;DHT22;53956;52.442;13.284;2023-11-18T00:25:24;9.10;99.90
18126;DHT22;53956;52.442;13.284;2023-11-18T00:27:50;9.00;99.90
18126;DHT22;53956;52.442;13.284;2023-11-18T00:30:17;9.10;99.90
18126;DHT22;53956;52.442;13.284;2023-11-18T00:32:44;9.00;99.90
18126;DHT22;53956;52.442;13.284;2023-11-18T00:35:11;8.90;99.90
18126;DHT22;53956;52.442;13.284;2023-11-18T00:37:37;8.90;99.90
18126;DHT22;53956;52.442;13.284;2023-11-18T00:40:07;8.80;99.90
18126;DHT22;53956;52.442;13.284;2023-11-18T00:42:34;9.00;99.90
18126;DHT22;53956;52.442;13.284;2023-11-18T00:45:00;9.00;99.90
18126;DHT22;53956;52.442;13.284;2023-11-18T00:47:27;9.00;99.90
18126;DHT22;53956;52.442;13.284;2023-11-18T00:49:54;8.90;99.90
18126;DHT22;53956;52.442;13.284;2023-11-18T00:52:20;9.00;99.90
18126;DHT22;53956;52.442;13.284;2023-11-18T00:54:47;9.00;99.90
18126;DHT22;53956;52.442;13.284;2023-11-18T00:57:15;8.90;99.90
18126;DHT22;53956;52.442;13.284;2023-11-18T00:59:42;8.90;99.90
18126;DHT22;53956;52.442;13.284;2023-11-18T01:02:10;9.10;99.90
18126;DHT22;53956;52.442;13.284;2023-11-18T01:04:36;9.10;99.90
18126;DHT22;53956;52.442;13.284;2023-11-18T01:07:03;9.00;99.90
18126;DHT22;53956;52.442;13.284;2023-11-18T01:09:30;8.80;99.90
18126;DHT22;53956;52.442;13.284;2023-11-18T01:12:02;8.70;99.90
18126;DHT22;53956;52.442;13.284;2023-11-18T01:14:30;9.00;99.90
18126;DHT22;53956;52.442;13.284;2023-11-18T01:16:57;8.90;99.90
18126;DHT22;53956;52.442;13.284;2023-11-18T01:19:24;9.00;99.90
18126;DHT22;53956;52.442;13.284;2023-11-18T01:21:50;9.10;99.90
18126;DHT22;53956;52.442;13.284;2023-11-18T01:24:18;9.00;99.90
18126;DHT22;53956;52.442;13.284;2023-11-18T01:26:45;9.00;99.90
18126;DHT22;53956;52.442;13.284;2023-11-18T01:29:12;9.00;99.90
18126;DHT22;53956;52.442;13.284;2023-11-18T01:31:40;8.90;99.90
18126;DHT22;53956;52.442;13.284;2023-11-18T01:34:06;9.10;99.90
18126;DHT22;53956;52.442;13.284;2023-11-18T01:36:33;8.90;99.90
18126;DHT22;53956;52.442;13.284;2023-11-18T01:39:00;8.90;99.90
18126;DHT22;53956;52.442;13.284;2023-11-18T01:41:27;9.00;99.90
18126;DHT22;53956;52.442;13.284;2023-11-18T01:43:54;8.80;99.90
18126;DHT22;53956;52.442;13.284;2023-11-18T01:46:21;8.80;99.90
18126;DHT22;53956;52.442;13.284;2023-11-18T01:48:50;9.00;99.90
18126;DHT22;53956;52.442;13.284;2023-11-18T01:51:18;8.80;99.90
18126;DHT22;53956;52.442;13.284;2023-11-18T01:53:47;8.80;99.90
18126;DHT22;53956;52.442;13.284;2023-11-18T01:56:15;8.80;99.90
18126;DHT22;53956;52.442;13.284;2023-11-18T01:58:42;8.80;99.90
18126;DHT22;53956;52.442;13.284;2023-11-18T02:01:09;8.90;99.90
18126;DHT22;53956;52.442;13.284;2023-11-18T02:03:36;8.80;99.90
18126;DHT22;53956;52.442;13.284;2023-11-18T02:06:06;8.90;99.90
18126;DHT22;53956;52.442;13.284;2023-11-18T02:08:34;9.00;99.90
18126;DHT22;53956;52.442;13.284;2023-11-18T02:11:09;9.10;99.90
18126;DHT22;53956;52.442;13.284;2023-11-18T02:13:39;9.00;99.90
18126;DHT22;53956;52.442;13.284;2023-11-18T02:16:07;9.00;99.90
18126;DHT22;53956;52.442;13.284;2023-11-18T02:18:35;8.90;99.90
18126;DHT22;53956;52.442;13.284;2023-11-18T02:21:07;9.00;99.90
18126;DHT22;53956;52.442;13.284;2023-11-18T02:23:36;8.90;99.90
18126;DHT22;53956;52.442;13.284;2023-11-18T02:26:05;9.00;99.90
18126;DHT22;53956;52.442;13.284;2023-11-18T02:28:31;9.00;99.90
18126;DHT22;53956;52.442;13.284;2023-11-18T02:31:03;8.90;99.90
18126;DHT22;53956;52.442;13.284;2023-11-18T02:33:36;9.00;99.90
18126;DHT22;53956;52.442;13.284;2023-11-18T02:36:10;9.00;99.90
18126;DHT22;53956;52.442;13.284;2023-11-18T02:38:48;9.00;99.90
18126;DHT22;53956;52.442;13.284;2023-11-18T02:41:17;9.10;99.90
18126;DHT22;53956;52.442;13.284;2023-11-18T02:43:45;9.00;99.90
18126;DHT22;53956;52.442;13.284;2023-11-18T02:46:13;9.00;99.90
18126;DHT22;53956;52.442;13.284;2023-11-18T02:48:40;9.00;99.90
18126;DHT22;53956;52.442;13.284;2023-11-18T02:51:07;9.10;99.90
18126;DHT22;53956;52.442;13.284;2023-11-18T02:53:34;8.70;99.90
18126;DHT22;53956;52.442;13.284;2023-11-18T02:56:01;8.80;99.90
18126;DHT22;53956;52.442;13.284;2023-11-18T02:58:31;9.00;99.90
18126;DHT22;53956;52.442;13.284;2023-11-18T03:00:58;9.00;99.90
18126;DHT22;53956;52.442;13.284;2023-11-18T03:03:26;8.90;99.90
18126;DHT22;53956;52.442;13.284;2023-11-18T03:05:52;9.00;99.90
18126;DHT22;53956;52.442;13.284;2023-11-18T03:08:21;8.90;99.90
18126;DHT22;53956;52.442;13.284;2023-11-18T03:10:47;9.10;99.90
18126;DHT22;53956;52.442;13.284;2023-11-18T03:13:17;8.90;99.90
18126;DHT22;53956;52.442;13.284;2023-11-18T03:15:45;9.00;99.90
18126;DHT22;53956;52.442;13.284;2023-11-18T03:18:13;9.00;99.90
18126;DHT22;53956;52.442;13.284;2023-11-18T03:20:40;9.10;99.90
18126;DHT22;53956;52.442;13.284;2023-11-18T03:23:07;9.10;99.90
18126;DHT22;53956;52.442;13.284;2023-11-18T03:25:35;8.90;99.90
18126;DHT22;53956;52.442;13.284;2023-11-18T03:28:03;9.00;99.90
18126;DHT22;53956;52.442;13.284;2023-11-18T03:30:31;9.20;99.90
18126;DHT22;53956;52.442;13.284;2023-11-18T03:33:00;9.10;99.90
18126;DHT22;53956;52.442;13.284;2023-11-18T03:35:26;9.10;99.90
18126;DHT22;53956;52.442;13.284;2023-11-18T03:37:53;9.10;99.90
18126;DHT22;53956;52.442;13.284;2023-11-18T03:40:20;9.10;99.90
18126;DHT22;53956;52.442;13.284;2023-11-18T03:42:47;9.10;99.90
18126;DHT22;53956;52.442;13.284;2023-11-18T03:45:14;9.00;99.90
18126;DHT22;53956;52.442;13.284;2023-11-18T03:47:43;9.10;99.90
18126;DHT22;53956;52.442;13.284;2023-11-18T03:50:12;9.10;99.90
18126;DHT22;53956;52.442;13.284;2023-11-18T03:52:39;9.10;99.90
18126;DHT22;53956;52.442;13.284;2023-11-18T03:55:07;9.10;99.90
18126;DHT22;53956;52.442;13.284;2023-11-18T03:57:34;9.00;99.90
18126;DHT22;53956;52.442;13.284;2023-11-18T04:00:00;9.00;99.90
18126;DHT22;53956;52.442;13.284;2023-11-18T04:02:35;9.10;99.90
18126;DHT22;53956;52.442;13.284;2023-11-18T04:05:03;9.10;99.90
18126;DHT22;53956;52.442;13.284;2023-11-18T04:07:31;9.10;99.90
18126;DHT22;53956;52.442;13.284;2023-11-18T04:09:58;9.10;99.90
18126;DHT22;53956;52.442;13.284;2023-11-18T04:12:25;9.00;99.90
18126;DHT22;53956;52.442;13.284;2023-11-18T04:14:52;8.80;99.90
18126;DHT22;53956;52.442;13.284;2023-11-18T04:17:19;9.00;99.90
18126;DHT22;53956;52.442;13.284;2023-11-18T04:19:45;9.00;99.90
18126;DHT22;53956;52.442;13.284;2023-11-18T04:22:12;9.00;99.90
18126;DHT22;53956;52.442;13.284;2023-11-18T04:24:40;8.70;99.90
18126;DHT22;53956;52.442;13.284;2023-11-18T04:27:10;9.10;99.90
18126;DHT22;53956;52.442;13.284;2023-11-18T04:29:37;9.10;99.90
18126;DHT22;53956;52.442;13.284;2023-11-18T04:32:05;9.10;99.90
18126;DHT22;53956;52.442;13.284;2023-11-18T04:34:35;9.20;99.90
18126;DHT22;53956;52.442;13.284;2023-11-18T04:37:02;9.10;99.90
18126;DHT22;53956;52.442;13.284;2023-11-18T04:39:31;9.10;99.90
18126;DHT22;53956;52.442;13.284;2023-11-18T04:41:59;9.10;99.90
18126;DHT22;53956;52.442;13.284;2023-11-18T04:44:26;9.10;99.90
18126;DHT22;53956;52.442;13.284;2023-11-18T04:46:53;9.10;99.90
18126;DHT22;53956;52.442;13.284;2023-11-18T04:49:19;8.90;99.90
18126;DHT22;53956;52.442;13.284;2023-11-18T04:51:46;8.90;99.90
18126;DHT22;53956;52.442;13.284;2023-11-18T04:54:13;8.80;99.90
18126;DHT22;53956;52.442;13.284;2023-11-18T04:56:39;8.90;99.90
18126;DHT22;53956;52.442;13.284;2023-11-18T04:59:07;8.80;99.90
18126;DHT22;53956;52.442;13.284;2023-11-18T05:01:34;8.90;99.90
18126;DHT22;53956;52.442;13.284;2023-11-18T05:04:02;8.80;99.90
18126;DHT22;53956;52.442;13.284;2023-11-18T05:06:29;8.80;99.90
18126;DHT22;53956;52.442;13.284;2023-11-18T05:08:56;8.80;99.90
18126;DHT22;53956;52.442;13.284;2023-11-18T05:11:22;8.90;99.90
18126;DHT22;53956;52.442;13.284;2023-11-18T05:13:49;8.80;99.90
18126;DHT22;53956;52.442;13.284;2023-11-18T05:16:17;8.90;99.90
18126;DHT22;53956;52.442;13.284;2023-11-18T05:18:44;9.00;99.90
18126;DHT22;53956;52.442;13.284;2023-11-18T05:21:10;8.90;99.90
18126;DHT22;53956;52.442;13.284;2023-11-18T05:23:37;9.00;99.90
18126;DHT22;53956;52.442;13.284;2023-11-18T05:26:04;8.90;99.90
18126;DHT22;53956;52.442;13.284;2023-11-18T05:28:31;8.90;99.90
18126;DHT22;53956;52.442;13.284;2023-11-18T05:30:58;9.00;99.90
18126;DHT22;53956;52.442;13.284;2023-11-18T05:33:28;8.90;99.90
18126;DHT22;53956;52.442;13.284;2023-11-18T05:35:55;8.80;99.90
18126;DHT22;53956;52.442;13.284;2023-11-18T05:38:22;8.90;99.90
18126;DHT22;53956;52.442;13.284;2023-11-18T05:40:52;8.90;99.90
18126;DHT22;53956;52.442;13.284;2023-11-18T05:43:22;9.00;99.90
18126;DHT22;53956;52.442;13.284;2023-11-18T05:45:51;9.00;99.90
18126;DHT22;53956;52.442;13.284;2023-11-18T05:48:50;8.90;99.90
18126;DHT22;53956;52.442;13.284;2023-11-18T05:51:22;8.90;99.90
18126;DHT22;53956;52.442;13.284;2023-11-18T05:53:49;9.00;99.90
18126;DHT22;53956;52.442;13.284;2023-11-18T05:56:16;8.90;99.90
18126;DHT22;53956;52.442;13.284;2023-11-18T05:58:43;8.90;99.90
18126;DHT22;53956;52.442;13.284;2023-11-18T06:01:10;8.90;99.90
18126;DHT22;53956;52.442;13.284;2023-11-18T06:03:37;8.90;99.90
18126;DHT22;53956;52.442;13.284;2023-11-18T06:06:08;9.00;99.90
18126;DHT22;53956;52.442;13.284;2023-11-18T06:08:35;9.00;99.90
18126;DHT22;53956;52.442;13.284;2023-11-18T06:11:03;8.90;99.90
18126;DHT22;53956;52.442;13.284;2023-11-18T06:13:38;8.90;99.90
18126;DHT22;53956;52.442;13.284;2023-11-18T06:16:09;8.90;99.90
18126;DHT22;53956;52.442;13.284;2023-11-18T06:18:40;8.90;99.90
18126;DHT22;53956;52.442;13.284;2023-11-18T06:21:15;9.00;99.90
18126;DHT22;53956;52.442;13.284;2023-11-18T06:23:44;9.00;99.90
18126;DHT22;53956;52.442;13.284;2023-11-18T06:26:11;9.10;99.90
18126;DHT22;53956;52.442;13.284;2023-11-18T06:28:38;9.10;99.90
18126;DHT22;53956;52.442;13.284;2023-11-18T06:31:06;9.00;99.90
18126;DHT22;53956;52.442;13.284;2023-11-18T06:33:37;9.00;99.90
18126;DHT22;53956;52.442;13.284;2023-11-18T06:36:06;9.00;99.90
18126;DHT22;53956;52.442;13.284;2023-11-18T06:38:34;9.00;99.90
18126;DHT22;53956;52.442;13.284;2023-11-18T06:41:01;9.00;99.90
18126;DHT22;53956;52.442;13.284;2023-11-18T06:43:30;9.00;99.90
18126;DHT22;53956;52.442;13.284;2023-11-18T06:46:11;9.00;99.90
18126;DHT22;53956;52.442;13.284;2023-11-18T06:48:39;9.00;99.90
18126;DHT22;53956;52.442;13.284;2023-11-18T06:51:06;9.20;99.90
18126;DHT22;53956;52.442;13.284;2023-11-18T06:53:34;9.00;99.90
18126;DHT22;53956;52.442;13.284;2023-11-18T06:56:01;9.00;99.90
18126;DHT22;53956;52.442;13.284;2023-11-18T06:58:28;9.00;99.90
18126;DHT22;53956;52.442;13.284;2023-11-18T07:00:54;9.00;99.90
18126;DHT22;53956;52.442;13.284;2023-11-18T07:03:21;9.00;99.90
18126;DHT22;53956;52.442;13.284;2023-11-18T07:05:48;9.00;99.90
18126;DHT22;53956;52.442;13.284;2023-11-18T07:08:14;9.10;99.90
18126;DHT22;53956;52.442;13.284;2023-11-18T07:10:42;9.10;99.90
18126;DHT22;53956;52.442;13.284;2023-11-18T07:13:09;9.20;99.90
18126;DHT22;53956;52.442;13.284;2023-11-18T07:15:36;9.20;99.90
18126;DHT22;53956;52.442;13.284;2023-11-18T07:18:02;9.30;99.90
18126;DHT22;53956;52.442;13.284;2023-11-18T07:20:29;9.20;99.90
18126;DHT22;53956;52.442;13.284;2023-11-18T07:22:56;9.30;99.90
18126;DHT22;53956;52.442;13.284;2023-11-18T07:25:23;9.30;99.90
18126;DHT22;53956;52.442;13.284;2023-11-18T07:27:51;9.30;99.90
18126;DHT22;53956;52.442;13.284;2023-11-18T07:30:17;9.40;99.90
18126;DHT22;53956;52.442;13.284;2023-11-18T07:32:45;9.40;99.90
18126;DHT22;53956;52.442;13.284;2023-11-18T07:35:12;9.40;99.90
18126;DHT22;53956;52.442;13.284;2023-11-18T07:37:38;9.30;99.90
18126;DHT22;53956;52.442;13.284;2023-11-18T07:40:06;9.40;99.90
18126;DHT22;53956;52.442;13.284;2023-11-18T07:42:37;9.20;99.90
18126;DHT22;53956;52.442;13.284;2023-11-18T07:45:06;9.20;99.90
18126;DHT22;53956;52.442;13.284;2023-11-18T07:47:43;9.30;99.90
18126;DHT22;53956;52.442;13.284;2023-11-18T07:50:09;9.20;99.90
18126;DHT22;53956;52.442;13.284;2023-11-18T07:52:38;9.00;99.90
18126;DHT22;53956;52.442;13.284;2023-11-18T07:55:05;9.20;99.90
18126;DHT22;53956;52.442;13.284;2023-11-18T07:57:36;9.20;99.90
18126;DHT22;53956;52.442;13.284;2023-11-18T08:00:04;9.30;99.90
18126;DHT22;53956;52.442;13.284;2023-11-18T08:02:39;9.30;99.90
18126;DHT22;53956;52.442;13.284;2023-11-18T08:05:06;9.30;99.90
18126;DHT22;53956;52.442;13.284;2023-11-18T08:07:34;9.40;99.90
18126;DHT22;53956;52.442;13.284;2023-11-18T08:10:02;9.30;99.90
18126;DHT22;53956;52.442;13.284;2023-11-18T08:12:30;9.40;99.90
18126;DHT22;53956;52.442;13.284;2023-11-18T08:14:57;9.30;99.90
18126;DHT22;53956;52.442;13.284;2023-11-18T08:17:26;9.30;99.90
18126;DHT22;53956;52.442;13.284;2023-11-18T08:19:53;9.20;99.90
18126;DHT22;53956;52.442;13.284;2023-11-18T08:22:21;9.20;99.90
18126;DHT22;53956;52.442;13.284;2023-11-18T08:24:48;9.30;99.90
18126;DHT22;53956;52.442;13.284;2023-11-18T08:27:15;9.30;99.90
18126;DHT22;53956;52.442;13.284;2023-11-18T08:29:42;9.30;99.90
18126;DHT22;53956;52.442;13.284;2023-11-18T08:32:09;9.40;99.90
18126;DHT22;53956;52.442;13.284;2023-11-18T08:34:37;9.20;99.90
18126;DHT22;53956;52.442;13.284;2023-11-18T08:37:03;9.20;99.90
18126;DHT22;53956;52.442;13.284;2023-11-18T08:39:30;9.30;99.90
18126;DHT22;53956;52.442;13.284;2023-11-18T08:41:57;9.20;99.90
18126;DHT22;53956;52.442;13.284;2023-11-18T08:44:24;9.30;99.90
18126;DHT22;53956;52.442;13.284;2023-11-18T08:46:52;9.30;99.90
18126;DHT22;53956;52.442;13.284;2023-11-18T08:49:19;9.30;99.90
18126;DHT22;53956;52.442;13.284;2023-11-18T08:51:48;9.40;99.90
18126;DHT22;53956;52.442;13.284;2023-11-18T08:54:21;9.50;99.90
18126;DHT22;53956;52.442;13.284;2023-11-18T08:56:51;9.40;99.90
18126;DHT22;53956;52.442;13.284;2023-11-18T08:59:18;9.40;99.90
18126;DHT22;53956;52.442;13.284;2023-11-18T09:01:50;9.50;99.90
18126;DHT22;53956;52.442;13.284;2023-11-18T09:04:21;9.50;99.90
18126;DHT22;53956;52.442;13.284;2023-11-18T09:06:50;9.50;99.90
18126;DHT22;53956;52.442;13.284;2023-11-18T09:09:20;9.40;99.90
18126;DHT22;53956;52.442;13.284;2023-11-18T09:11:53;9.50;99.90
18126;DHT22;53956;52.442;13.284;2023-11-18T09:14:21;9.50;99.90
18126;DHT22;53956;52.442;13.284;2023-11-18T09:16:50;9.40;99.90
18126;DHT22;53956;52.442;13.284;2023-11-18T09:19:16;9.50;99.90
18126;DHT22;53956;52.442;13.284;2023-11-18T09:21:45;9.50;99.90
18126;DHT22;53956;52.442;13.284;2023-11-18T09:24:13;9.40;99.90
18126;DHT22;53956;52.442;13.284;2023-11-18T09:26:41;9.40;99.90
18126;DHT22;53956;52.442;13.284;2023-11-18T09:29:09;9.40;99.90
18126;DHT22;53956;52.442;13.284;2023-11-18T09:31:36;9.40;99.90
18126;DHT22;53956;52.442;13.284;2023-11-18T09:34:03;9.20;99.90
18126;DHT22;53956;52.442;13.284;2023-11-18T09:36:32;9.20;99.90
18126;DHT22;53956;52.442;13.284;2023-11-18T09:38:59;9.30;99.90
18126;DHT22;53956;52.442;13.284;2023-11-18T09:41:30;9.40;99.90
18126;DHT22;53956;52.442;13.284;2023-11-18T09:43:58;9.40;99.90
18126;DHT22;53956;52.442;13.284;2023-11-18T09:46:29;9.40;99.90
18126;DHT22;53956;52.442;13.284;2023-11-18T09:49:06;9.40;99.90
18126;DHT22;53956;52.442;13.284;2023-11-18T09:51:41;9.50;99.90
18126;DHT22;53956;52.442;13.284;2023-11-18T09:54:16;9.60;99.90
18126;DHT22;53956;52.442;13.284;2023-11-18T09:56:51;9.50;99.90
18126;DHT22;53956;52.442;13.284;2023-11-18T09:59:26;9.70;99.90
18126;DHT22;53956;52.442;13.284;2023-11-18T10:01:57;9.70;99.90
18126;DHT22;53956;52.442;13.284;2023-11-18T10:04:25;9.70;99.90
18126;DHT22;53956;52.442;13.284;2023-11-18T10:06:53;9.70;99.90
18126;DHT22;53956;52.442;13.284;2023-11-18T10:09:22;9.70;99.90
18126;DHT22;53956;52.442;13.284;2023-11-18T10:11:55;9.80;99.90
18126;DHT22;53956;52.442;13.284;2023-11-18T10:14:26;9.70;99.90
18126;DHT22;53956;52.442;13.284;2023-11-18T10:16:52;9.70;99.90
18126;DHT22;53956;52.442;13.284;2023-11-18T10:19:19;9.70;99.90
18126;DHT22;53956;52.442;13.284;2023-11-18T10:21:46;9.60;99.90
18126;DHT22;53956;52.442;13.284;2023-11-18T10:24:15;9.60;99.90
18126;DHT22;53956;52.442;13.284;2023-11-18T10:26:45;9.70;99.90
18126;DHT22;53956;52.442;13.284;2023-11-18T10:29:14;9.70;99.90
18126;DHT22;53956;52.442;13.284;2023-11-18T10:31:43;9.70;99.90
18126;DHT22;53956;52.442;13.284;2023-11-18T10:34:12;9.60;99.90
18126;DHT22;53956;52.442;13.284;2023-11-18T10:36:41;9.60;99.90
18126;DHT22;53956;52.442;13.284;2023-11-18T10:39:13;9.60;99.90
18126;DHT22;53956;52.442;13.284;2023-11-18T10:41:42;9.70;99.90
18126;DHT22;53956;52.442;13.284;2023-11-18T10:44:11;9.70;99.90
18126;DHT22;53956;52.442;13.284;2023-11-18T10:46:50;9.70;99.90
18126;DHT22;53956;52.442;13.284;2023-11-18T10:49:20;9.70;99.90
18126;DHT22;53956;52.442;13.284;2023-11-18T10:51:47;9.70;99.90
18126;DHT22;53956;52.442;13.284;2023-11-18T10:54:13;9.60;99.90
18126;DHT22;53956;52.442;13.284;2023-11-18T10:56:49;9.70;99.90
18126;DHT22;53956;52.442;13.284;2023-11-18T10:59:16;9.60;99.90
18126;DHT22;53956;52.442;13.284;2023-11-18T11:01:45;9.60;99.90
18126;DHT22;53956;52.442;13.284;2023-11-18T11:04:15;9.70;99.90
18126;DHT22;53956;52.442;13.284;2023-11-18T11:06:44;9.60;99.90
18126;DHT22;53956;52.442;13.284;2023-11-18T11:09:17;9.50;99.90
18126;DHT22;53956;52.442;13.284;2023-11-18T11:11:48;9.60;99.90
18126;DHT22;53956;52.442;13.284;2023-11-18T11:14:16;9.70;99.90
18126;DHT22;53956;52.442;13.284;2023-11-18T11:16:53;9.70;99.90
18126;DHT22;53956;52.442;13.284;2023-11-18T11:19:26;9.50;99.90
18126;DHT22;53956;52.442;13.284;2023-11-18T11:22:00;9.70;99.90
18126;DHT22;53956;52.442;13.284;2023-11-18T11:24:41;9.80;99.90
18126;DHT22;53956;52.442;13.284;2023-11-18T11:27:21;9.80;99.90
18126;DHT22;53956;52.442;13.284;2023-11-18T11:29:59;9.80;99.90
18126;DHT22;53956;52.442;13.284;2023-11-18T11:32:32;9.90;99.90
18126;DHT22;53956;52.442;13.284;2023-11-18T11:35:06;9.90;99.90
18126;DHT22;53956;52.442;13.284;2023-11-18T11:37:34;10.00;99.90
18126;DHT22;53956;52.442;13.284;2023-11-18T11:40:01;9.90;99.90
18126;DHT22;53956;52.442;13.284;2023-11-18T11:42:36;9.80;99.90
18126;DHT22;53956;52.442;13.284;2023-11-18T11:45:03;9.90;99.90
18126;DHT22;53956;52.442;13.284;2023-11-18T11:47:35;9.80;99.90
18126;DHT22;53956;52.442;13.284;2023-11-18T11:50:15;9.80;99.90
18126;DHT22;53956;52.442;13.284;2023-11-18T11:52:51;9.80;99.90
18126;DHT22;53956;52.442;13.284;2023-11-18T11:55:26;9.60;99.90
18126;DHT22;53956;52.442;13.284;2023-11-18T11:57:55;9.40;99.90
18126;DHT22;53956;52.442;13.284;2023-11-18T12:00:24;9.50;99.90
18126;DHT22;53956;52.442;13.284;2023-11-18T12:03:01;9.70;99.90
18126;DHT22;53956;52.442;13.284;2023-11-18T12:05:30;9.80;99.90
18126;DHT22;53956;52.442;13.284;2023-11-18T12:07:59;9.80;99.90
18126;DHT22;53956;52.442;13.284;2023-11-18T12:10:26;9.90;99.90
18126;DHT22;53956;52.442;13.284;2023-11-18T12:13:07;9.90;99.90
18126;DHT22;53956;52.442;13.284;2023-11-18T12:15:51;9.80;99.90
18126;DHT22;53956;52.442;13.284;2023-11-18T12:18:24;9.80;99.90
18126;DHT22;53956;52.442;13.284;2023-11-18T12:20:51;9.80;99.90
18126;DHT22;53956;52.442;13.284;2023-11-18T12:23:20;9.50;99.90
18126;DHT22;53956;52.442;13.284;2023-11-18T12:25:49;9.50;99.90
18126;DHT22;53956;52.442;13.284;2023-11-18T12:28:21;9.40;99.90
18126;DHT22;53956;52.442;13.284;2023-11-18T12:30:53;9.70;99.90
18126;DHT22;53956;52.442;13.284;2023-11-18T12:33:24;9.70;99.90
18126;DHT22;53956;52.442;13.284;2023-11-18T12:39:27;9.80;99.90
18126;DHT22;53956;52.442;13.284;2023-11-18T12:42:03;9.80;99.90
18126;DHT22;53956;52.442;13.284;2023-11-18T12:44:38;9.40;99.90
18126;DHT22;53956;52.442;13.284;2023-11-18T12:47:14;9.60;99.90
18126;DHT22;53956;52.442;13.284;2023-11-18T12:49:45;9.60;99.90
18126;DHT22;53956;52.442;13.284;2023-11-18T12:52:18;9.60;99.90
18126;DHT22;53956;52.442;13.284;2023-11-18T12:54:47;9.60;99.90
18126;DHT22;53956;52.442;13.284;2023-11-18T12:57:16;9.60;99.90
18126;DHT22;53956;52.442;13.284;2023-11-18T12:59:43;9.70;99.90
18126;DHT22;53956;52.442;13.284;2023-11-18T13:02:11;9.60;99.90
18126;DHT22;53956;52.442;13.284;2023-11-18T13:04:46;9.30;99.90
18126;DHT22;53956;52.442;13.284;2023-11-18T13:07:14;9.30;99.90
18126;DHT22;53956;52.442;13.284;2023-11-18T13:09:43;8.90;99.90
18126;DHT22;53956;52.442;13.284;2023-11-18T13:12:11;9.40;99.90
18126;DHT22;53956;52.442;13.284;2023-11-18T13:14:41;9.40;99.90
18126;DHT22;53956;52.442;13.284;2023-11-18T13:17:09;9.50;99.90
18126;DHT22;53956;52.442;13.284;2023-11-18T13:19:38;9.60;99.90
18126;DHT22;53956;52.442;13.284;2023-11-18T13:22:07;9.60;99.90
18126;DHT22;53956;52.442;13.284;2023-11-18T13:24:34;9.60;99.90
18126;DHT22;53956;52.442;13.284;2023-11-18T13:27:02;9.60;99.90
18126;DHT22;53956;52.442;13.284;2023-11-18T13:29:30;9.60;99.90
18126;DHT22;53956;52.442;13.284;2023-11-18T13:31:57;9.70;99.90
18126;DHT22;53956;52.442;13.284;2023-11-18T13:34:26;9.70;99.90
18126;DHT22;53956;52.442;13.284;2023-11-18T13:36:55;9.50;99.90
18126;DHT22;53956;52.442;13.284;2023-11-18T13:39:23;9.40;99.90
18126;DHT22;53956;52.442;13.284;2023-11-18T13:41:53;9.40;99.90
18126;DHT22;53956;52.442;13.284;2023-11-18T13:44:32;9.50;99.90
18126;DHT22;53956;52.442;13.284;2023-11-18T13:47:00;9.20;99.90
18126;DHT22;53956;52.442;13.284;2023-11-18T13:49:30;9.10;99.90
18126;DHT22;53956;52.442;13.284;2023-11-18T13:51:57;9.20;99.90
18126;DHT22;53956;52.442;13.284;2023-11-18T13:54:27;9.30;99.90
18126;DHT22;53956;52.442;13.284;2023-11-18T13:56:54;9.30;99.90
18126;DHT22;53956;52.442;13.284;2023-11-18T13:59:23;8.80;99.90
18126;DHT22;53956;52.442;13.284;2023-11-18T14:01:51;9.00;99.90
18126;DHT22;53956;52.442;13.284;2023-11-18T14:04:18;9.10;99.90
18126;DHT22;53956;52.442;13.284;2023-11-18T14:06:45;9.40;99.90
18126;DHT22;53956;52.442;13.284;2023-11-18T14:09:13;9.30;99.90
18126;DHT22;53956;52.442;13.284;2023-11-18T14:11:42;9.30;99.90
18126;DHT22;53956;52.442;13.284;2023-11-18T14:14:10;9.40;99.90
18126;DHT22;53956;52.442;13.284;2023-11-18T14:16:37;9.50;99.90
18126;DHT22;53956;52.442;13.284;2023-11-18T14:19:05;9.40;99.90
18126;DHT22;53956;52.442;13.284;2023-11-18T14:21:33;9.50;99.90
18126;DHT22;53956;52.442;13.284;2023-11-18T14:23:59;9.50;99.90
18126;DHT22;53956;52.442;13.284;2023-11-18T14:26:28;9.50;99.90
18126;DHT22;53956;52.442;13.284;2023-11-18T14:28:57;9.60;99.90
18126;DHT22;53956;52.442;13.284;2023-11-18T14:31:25;9.50;99.90
18126;DHT22;53956;52.442;13.284;2023-11-18T14:33:51;9.50;99.90
18126;DHT22;53956;52.442;13.284;2023-11-18T14:36:19;9.40;99.90
18126;DHT22;53956;52.442;13.284;2023-11-18T14:38:46;9.40;99.90
18126;DHT22;53956;52.442;13.284;2023-11-18T14:41:13;9.50;99.90
18126;DHT22;53956;52.442;13.284;2023-11-18T14:43:40;9.20;99.90
18126;DHT22;53956;52.442;13.284;2023-11-18T14:46:09;8.90;99.90
18126;DHT22;53956;52.442;13.284;2023-11-18T14:48:35;9.00;99.90
18126;DHT22;53956;52.442;13.284;2023-11-18T14:51:03;9.00;99.90
18126;DHT22;53956;52.442;13.284;2023-11-18T14:53:30;9.10;99.90
18126;DHT22;53956;52.442;13.284;2023-11-18T14:55:56;9.20;99.90
18126;DHT22;53956;52.442;13.284;2023-11-18T14:58:24;9.00;99.90
18126;DHT22;53956;52.442;13.284;2023-11-18T15:00:51;8.80;99.90
18126;DHT22;53956;52.442;13.284;2023-11-18T15:03:20;8.70;99.90
18126;DHT22;53956;52.442;13.284;2023-11-18T15:05:48;8.60;99.90
18126;DHT22;53956;52.442;13.284;2023-11-18T15:08:15;8.70;99.90
18126;DHT22;53956;52.442;13.284;2023-11-18T15:10:42;8.50;99.90
18126;DHT22;53956;52.442;13.284;2023-11-18T15:13:10;8.50;99.90
18126;DHT22;53956;52.442;13.284;2023-11-18T15:15:41;8.60;99.90
18126;DHT22;53956;52.442;13.284;2023-11-18T15:18:08;8.60;99.90
18126;DHT22;53956;52.442;13.284;2023-11-18T15:20:40;8.80;99.90
18126;DHT22;53956;52.442;13.284;2023-11-18T15:23:08;8.90;99.90
18126;DHT22;53956;52.442;13.284;2023-11-18T15:25:35;8.70;99.90
18126;DHT22;53956;52.442;13.284;2023-11-18T15:28:01;8.70;99.90
18126;DHT22;53956;52.442;13.284;2023-11-18T15:30:29;8.70;99.90
18126;DHT22;53956;52.442;13.284;2023-11-18T15:32:56;8.40;99.90
18126;DHT22;53956;52.442;13.284;2023-11-18T15:35:22;8.60;99.90
18126;DHT22;53956;52.442;13.284;2023-11-18T15:37:51;8.80;99.90
18126;DHT22;53956;52.442;13.284;2023-11-18T15:40:18;8.50;99.90
18126;DHT22;53956;52.442;13.284;2023-11-18T15:42:46;8.60;99.90